Hillman, Ohio
Current Conditions -  °F | °C
As of 7:15 PM on Wednesday 28 Jan 2015 (Local Time) from KFGX Reporting Station
Clear Clear  
Wind Chill: -5°   Ceiling: Unl
Heat Index: -2°   Visibility: 10mi
Dew Point: -7°   Wind: 6mph
Humidity: 69%   Direction: 130°SE
Pressure: 30.27"   Gusts: NA
Location:  38.8698°N, 83.9081°W
Report Text: KFGX 290015Z AUTO 13005KT 10SM CLR M02/M07 A3027 RMK AO2 T10201071
Loading
Personal Weather Stations






























Interactive Weather Map New forecast layout! Learn more

10-Day Weather Forecast

Advertisements
Track Severe Weather on mobile